Time;durP1;ratioP1;P1;durP2;ratioP2;P2;SDS_P1;SDS_P2;PMS_P1;PMS_P2;Temp;Humidity;BMP_temperature;BMP_pressure;BME280_temperature;BME280_humidity;BME280_pressure;Samples;Min_cycle;Max_cycle;Signal;HPM_P1;HPM_P2
2021/04/24 00:01:20;;;;;;;11.13;8.70;;;;;;;11.53;46.16;97008.06;5053913;28;20197;-58
2021/04/24 00:03:46;;;;;;;11.03;9.10;;;;;;;11.57;46.18;97008.41;5053720;28;20182;-58
2021/04/24 00:06:11;;;;;;;15.37;10.47;;;;;;;11.44;46.67;97004.06;5053805;28;20398;-58
2021/04/24 00:08:37;;;;;;;15.00;9.83;;;;;;;11.47;47.00;97008.91;5055175;28;20183;-61
2021/04/24 00:11:03;;;;;;;13.23;9.97;;;;;;;11.47;46.72;97006.28;5066885;28;20661;-60
2021/04/24 00:13:28;;;;;;;13.07;8.97;;;;;;;11.52;46.87;97006.44;5053498;28;20418;-61
2021/04/24 00:15:54;;;;;;;15.03;9.57;;;;;;;11.41;47.24;97002.66;5064974;28;20195;-60
2021/04/24 00:18:20;;;;;;;11.30;9.50;;;;;;;11.22;47.61;97010.72;5073107;28;20167;-59
2021/04/24 00:20:45;;;;;;;14.20;9.00;;;;;;;11.22;47.41;97011.53;5073839;28;20173;-58
2021/04/24 00:23:11;;;;;;;12.77;9.33;;;;;;;11.22;46.92;97003.63;5072810;28;20417;-60
2021/04/24 00:25:37;;;;;;;13.07;9.57;;;;;;;11.21;47.86;97002.00;5073615;28;20166;-59
2021/04/24 00:28:03;;;;;;;10.63;8.53;;;;;;;11.18;48.07;96997.19;5073197;28;20755;-60
2021/04/24 00:30:29;;;;;;;11.30;8.57;;;;;;;11.17;47.61;97000.03;5071309;28;20240;-58
2021/04/24 00:32:55;;;;;;;11.37;8.20;;;;;;;11.16;47.05;97003.69;5073505;28;20409;-60
2021/04/24 00:35:21;;;;;;;20.33;8.10;;;;;;;11.16;47.02;96996.59;5073409;28;20204;-60
2021/04/24 00:37:48;;;;;;;10.27;7.80;;;;;;;11.06;47.08;97001.53;5060824;28;20185;-60
2021/04/24 00:40:14;;;;;;;8.57;6.67;;;;;;;11.02;46.68;96989.81;5053322;28;20931;-59
2021/04/24 00:42:41;;;;;;;11.20;7.87;;;;;;;10.98;46.77;96987.84;5053226;28;20884;-60
2021/04/24 00:45:09;;;;;;;8.93;6.23;;;;;;;10.92;47.22;96993.94;5061837;28;20413;-60
2021/04/24 00:47:35;;;;;;;12.23;6.50;;;;;;;10.86;47.82;96985.06;5072889;28;20496;-60
2021/04/24 00:50:00;;;;;;;9.57;6.30;;;;;;;10.83;47.39;96984.69;5056892;28;20876;-59
2021/04/24 00:52:25;;;;;;;12.87;6.60;;;;;;;10.81;48.37;96982.28;5064953;28;20175;-59
2021/04/24 00:54:51;;;;;;;7.00;6.27;;;;;;;10.80;47.81;96982.47;5073051;28;20570;-58
2021/04/24 00:57:17;;;;;;;7.33;5.50;;;;;;;10.86;47.47;96979.00;5072884;28;20171;-60
2021/04/24 00:59:42;;;;;;;7.27;5.10;;;;;;;10.69;48.04;96981.31;5065205;28;20221;-57
2021/04/24 01:02:09;;;;;;;6.77;5.13;;;;;;;10.68;48.84;96969.22;5053062;28;20571;-58
2021/04/24 01:04:35;;;;;;;10.13;6.80;;;;;;;10.62;48.61;96972.66;5053264;28;20171;-58
2021/04/24 01:07:02;;;;;;;12.20;6.20;;;;;;;10.68;49.08;96973.66;5072169;28;20412;-60
2021/04/24 01:09:27;;;;;;;10.40;5.97;;;;;;;10.71;49.22;96967.97;5072765;28;20190;-59
2021/04/24 01:11:53;;;;;;;8.83;6.00;;;;;;;10.61;49.88;96968.44;5076097;28;20404;-57
2021/04/24 01:14:18;;;;;;;8.83;6.87;;;;;;;10.57;49.26;96969.88;5069578;28;20214;-60
2021/04/24 01:16:44;;;;;;;8.60;5.77;;;;;;;10.47;49.83;96956.41;5067951;28;20171;-58
2021/04/24 01:19:23;;;;;;;11.10;6.50;;;;;;;10.46;49.98;96962.66;5075577;28;20672;-60
2021/04/24 01:22:01;;;;;;;7.90;6.77;;;;;;;10.59;48.79;96967.03;5075687;28;20263;-59
2021/04/24 01:24:27;;;;;;;7.43;5.57;;;;;;;10.47;49.91;96966.09;5076727;28;20400;-60
2021/04/24 01:26:53;;;;;;;13.60;6.70;;;;;;;10.50;48.54;96958.59;5076929;28;20902;-58
2021/04/24 01:29:19;;;;;;;8.17;5.10;;;;;;;10.54;48.70;96964.22;5076373;28;20262;-58
2021/04/24 01:31:44;;;;;;;8.27;5.17;;;;;;;10.50;48.18;96957.78;5073058;28;20858;-60
2021/04/24 01:34:09;;;;;;;6.70;5.30;;;;;;;10.40;48.50;96960.84;5057258;28;20209;-57
2021/04/24 01:36:36;;;;;;;10.57;5.47;;;;;;;10.49;47.88;96961.44;5056676;28;20173;-57
2021/04/24 01:39:05;;;;;;;9.67;5.50;;;;;;;10.35;49.07;96952.78;5054744;28;20245;-58
2021/04/24 01:41:32;;;;;;;11.90;5.10;;;;;;;10.18;50.55;96955.09;5070748;28;20417;-59
2021/04/24 01:43:57;;;;;;;6.50;5.33;;;;;;;10.30;50.27;96948.19;5076455;28;20921;-57
2021/04/24 01:46:23;;;;;;;10.13;5.37;;;;;;;10.20;49.48;96952.25;5074551;28;20510;-60
2021/04/24 01:48:50;;;;;;;9.27;5.00;;;;;;;10.21;49.21;96949.44;5058506;28;20195;-59
2021/04/24 01:51:15;;;;;;;7.90;5.43;;;;;;;10.20;48.76;96953.06;5056181;28;20900;-58
2021/04/24 01:53:41;;;;;;;8.57;5.43;;;;;;;10.14;49.46;96953.09;5056301;28;20408;-60
2021/04/24 01:56:10;;;;;;;9.63;5.70;;;;;;;9.97;50.79;96952.72;5056165;28;20212;-60
2021/04/24 01:58:36;;;;;;;8.77;4.70;;;;;;;9.84;51.42;96951.94;5055924;28;20234;-58
2021/04/24 02:01:12;;;;;;;9.23;5.33;;;;;;;9.75;51.30;96951.34;5058704;28;20423;-60
2021/04/24 02:03:37;;;;;;;8.77;5.60;;;;;;;9.84;50.69;96946.69;5076211;28;20795;-59
2021/04/24 02:06:04;;;;;;;13.53;5.40;;;;;;;9.77;50.49;96951.16;5075914;28;20420;-60
2021/04/24 02:08:37;;;;;;;7.60;5.40;;;;;;;9.75;50.95;96948.72;5075481;28;20296;-58
2021/04/24 02:11:04;;;;;;;11.37;6.03;;;;;;;9.75;51.88;96947.91;5074539;28;20460;-58
2021/04/24 02:13:32;;;;;;;7.93;5.40;;;;;;;9.77;51.20;96945.91;5075902;28;20817;-59
2021/04/24 02:15:58;;;;;;;9.43;5.93;;;;;;;9.80;50.74;96943.66;5068978;28;20458;-60
2021/04/24 02:18:25;;;;;;;11.63;6.70;;;;;;;9.92;49.63;96944.66;5071692;28;20437;-59
2021/04/24 02:20:50;;;;;;;15.77;5.57;;;;;;;9.98;49.42;96943.81;5072351;28;20178;-58
2021/04/24 02:23:16;;;;;;;8.83;6.40;;;;;;;9.78;50.34;96944.91;5074363;28;20438;-59
2021/04/24 02:25:43;;;;;;;8.33;5.20;;;;;;;9.68;51.76;96940.06;5066843;28;20177;-59
2021/04/24 02:28:09;;;;;;;7.13;5.40;;;;;;;9.51;52.12;96940.72;5074790;28;20620;-60
2021/04/24 02:30:35;;;;;;;10.10;6.60;;;;;;;9.46;52.55;96953.66;5056542;28;20453;-60
2021/04/24 02:33:03;;;;;;;10.37;6.57;;;;;;;9.41;53.25;96950.81;5075347;28;20479;-59
2021/04/24 02:35:36;;;;;;;9.30;5.87;;;;;;;9.33;52.82;96949.19;5066322;28;20467;-58
2021/04/24 02:38:02;;;;;;;10.73;6.00;;;;;;;9.38;52.46;96946.78;5054962;28;20423;-57
2021/04/24 02:40:27;;;;;;;7.93;5.53;;;;;;;9.44;52.67;96943.34;5055277;28;20435;-61
2021/04/24 02:42:53;;;;;;;10.03;6.43;;;;;;;9.47;52.78;96947.38;5055390;28;20269;-59
2021/04/24 02:45:19;;;;;;;9.83;5.93;;;;;;;9.46;52.23;96943.94;5075174;28;20206;-59
2021/04/24 02:47:45;;;;;;;10.40;5.10;;;;;;;9.34;52.48;96942.97;5061774;28;20538;-59
2021/04/24 02:50:16;;;;;;;6.37;5.67;;;;;;;9.45;51.61;96944.16;5074966;28;20448;-60
2021/04/24 02:52:43;;;;;;;6.13;5.07;;;;;;;9.51;52.48;96935.47;5075207;28;20171;-59
2021/04/24 02:55:09;;;;;;;9.70;5.73;;;;;;;9.37;52.96;96941.75;5075008;28;20507;-58
2021/04/24 02:57:34;;;;;;;8.30;5.93;;;;;;;9.38;52.49;96931.06;5064247;28;20425;-58
2021/04/24 03:00:00;;;;;;;7.73;5.97;;;;;;;9.38;52.26;96931.06;5054760;28;20447;-58
2021/04/24 03:02:25;;;;;;;7.67;5.60;;;;;;;9.20;53.16;96928.25;5069967;28;20188;-59
2021/04/24 03:04:50;;;;;;;6.67;5.83;;;;;;;9.20;54.46;96926.41;5075088;28;20180;-60
2021/04/24 03:07:16;;;;;;;11.83;6.50;;;;;;;9.15;54.32;96928.03;5071582;28;20180;-60
2021/04/24 03:09:41;;;;;;;7.10;5.37;;;;;;;9.09;53.60;96932.28;5063379;28;20234;-60
2021/04/24 03:12:07;;;;;;;8.13;5.93;;;;;;;9.20;52.95;96929.03;5074734;28;20533;-60
2021/04/24 03:14:34;;;;;;;9.43;5.40;;;;;;;9.04;53.54;96933.91;5074515;28;20198;-59
2021/04/24 03:17:00;;;;;;;14.63;6.83;;;;;;;8.96;53.56;96928.84;5068178;28;20426;-61
2021/04/24 03:19:25;;;;;;;11.23;6.40;;;;;;;8.96;53.28;96926.22;5060737;28;20524;-61
2021/04/24 03:21:51;;;;;;;11.93;5.53;;;;;;;9.04;53.17;96918.97;5074673;28;20168;-60
2021/04/24 03:24:16;;;;;;;8.80;5.40;;;;;;;9.05;52.44;96927.66;5056660;28;20256;-58
2021/04/24 03:26:41;;;;;;;8.00;5.67;;;;;;;9.09;51.87;96926.25;5054599;28;20178;-60
2021/04/24 03:29:07;;;;;;;8.67;5.60;;;;;;;9.07;52.27;96925.63;5053855;28;20214;-60
2021/04/24 03:31:33;;;;;;;8.07;6.50;;;;;;;8.99;52.64;96929.25;5061078;28;20180;-60
2021/04/24 03:33:58;;;;;;;8.73;5.80;;;;;;;9.05;52.21;96919.78;5062272;28;20326;-60
2021/04/24 03:36:23;;;;;;;8.23;5.30;;;;;;;8.98;52.18;96918.97;5054263;28;20206;-61
2021/04/24 03:38:49;;;;;;;9.93;5.67;;;;;;;8.89;52.28;96920.19;5053896;28;20192;-61
2021/04/24 03:41:14;;;;;;;10.03;6.60;;;;;;;8.91;52.82;96913.72;5054341;28;20248;-60
2021/04/24 03:43:40;;;;;;;7.80;5.43;;;;;;;8.76;55.00;96909.69;5052891;28;20185;-58
2021/04/24 03:46:06;;;;;;;9.77;5.47;;;;;;;8.58;55.16;96910.28;5054068;28;20189;-58
2021/04/24 03:48:32;;;;;;;8.33;4.87;;;;;;;8.71;53.69;96918.16;5062613;28;20671;-61
2021/04/24 03:50:58;;;;;;;9.93;5.53;;;;;;;8.69;53.77;96911.50;5067845;28;20217;-58
2021/04/24 03:53:23;;;;;;;10.73;5.77;;;;;;;8.66;54.64;96917.94;5053946;28;20487;-59
2021/04/24 03:55:49;;;;;;;7.80;5.37;;;;;;;8.71;54.08;96914.72;5053836;28;20205;-60
2021/04/24 03:58:14;;;;;;;7.10;6.40;;;;;;;8.71;54.57;96920.78;5053455;28;20170;-58
2021/04/24 04:00:40;;;;;;;8.87;6.00;;;;;;;8.74;53.79;96916.94;5053789;28;20234;-58
2021/04/24 04:03:08;;;;;;;6.77;5.67;;;;;;;8.73;54.30;96918.75;5073019;28;20171;-58
2021/04/24 04:05:41;;;;;;;7.97;5.70;;;;;;;8.63;54.29;96913.09;5072859;28;20232;-60
2021/04/24 04:08:08;;;;;;;10.20;6.40;;;;;;;8.59;54.73;96924.97;5072169;28;20434;-60
2021/04/24 04:10:35;;;;;;;10.40;6.00;;;;;;;8.56;54.20;96930.63;5073674;28;20435;-61
2021/04/24 04:13:01;;;;;;;7.73;5.97;;;;;;;8.50;54.52;96923.56;5073601;28;20474;-58
2021/04/24 04:15:28;;;;;;;9.70;6.30;;;;;;;8.48;55.09;96936.03;5073265;28;20453;-58
2021/04/24 04:18:12;;;;;;;9.23;5.70;;;;;;;8.47;54.39;96931.00;5064343;28;20176;-58
2021/04/24 04:20:42;;;;;;;6.60;5.83;;;;;;;8.45;54.75;96927.75;5054134;28;20419;-60
2021/04/24 04:23:08;;;;;;;8.03;5.60;;;;;;;8.46;54.87;96937.25;5053609;28;20398;-58
2021/04/24 04:25:33;;;;;;;6.87;5.50;;;;;;;8.48;54.29;96933.41;5053664;28;20889;-59
2021/04/24 04:27:59;;;;;;;7.40;5.27;;;;;;;8.47;53.64;96937.06;5053355;28;20430;-60
2021/04/24 04:30:24;;;;;;;9.90;5.70;;;;;;;8.42;54.88;96943.88;5053228;28;20194;-58
2021/04/24 04:32:51;;;;;;;10.80;5.50;;;;;;;8.39;54.20;96944.28;5070300;28;20257;-60
2021/04/24 04:35:17;;;;;;;7.63;5.60;;;;;;;8.25;54.71;96949.47;5072633;28;20201;-58
2021/04/24 04:37:43;;;;;;;6.83;5.57;;;;;;;8.15;54.63;96954.22;5069300;28;20472;-59
2021/04/24 04:40:10;;;;;;;5.33;4.83;;;;;;;8.02;56.05;96963.84;5053211;28;20427;-58
2021/04/24 04:42:36;;;;;;;7.73;5.57;;;;;;;7.98;55.29;96960.81;5053355;28;20188;-59
2021/04/24 04:45:06;;;;;;;11.07;5.83;;;;;;;8.01;56.07;96955.19;5053454;28;20398;-59
2021/04/24 04:47:31;;;;;;;11.30;6.43;;;;;;;8.01;55.74;96956.97;5058862;28;20260;-58
2021/04/24 04:49:57;;;;;;;10.23;6.50;;;;;;;8.13;55.43;96958.06;5057324;28;20539;-60
2021/04/24 04:52:22;;;;;;;9.90;6.10;;;;;;;8.15;55.05;96959.44;5057296;28;20181;-61
2021/04/24 04:54:49;;;;;;;8.40;6.20;;;;;;;8.15;55.30;96958.66;5077345;28;20236;-58
2021/04/24 04:57:14;;;;;;;12.10;6.60;;;;;;;8.25;55.63;96954.72;5076870;28;20220;-59
2021/04/24 04:59:40;;;;;;;10.30;5.80;;;;;;;8.31;55.21;96955.75;5075533;28;20452;-59
2021/04/24 05:02:05;;;;;;;8.63;6.33;;;;;;;8.25;55.34;96959.13;5061499;28;20218;-60
2021/04/24 05:04:32;;;;;;;9.13;6.13;;;;;;;8.22;56.24;96964.72;5075468;28;20171;-58
2021/04/24 05:06:58;;;;;;;9.83;5.73;;;;;;;8.24;56.62;96960.16;5075528;28;20179;-58
2021/04/24 05:09:23;;;;;;;6.57;5.73;;;;;;;8.26;57.03;96964.16;5076916;28;20440;-58
2021/04/24 05:11:49;;;;;;;7.50;5.07;;;;;;;8.30;56.94;96964.56;5077201;28;20175;-59
2021/04/24 05:14:18;;;;;;;11.97;6.23;;;;;;;8.42;56.37;96959.59;5076988;28;20192;-61
2021/04/24 05:16:44;;;;;;;6.50;4.90;;;;;;;8.50;56.77;96962.03;5076996;28;20907;-59
2021/04/24 05:19:09;;;;;;;8.50;5.60;;;;;;;8.41;56.43;96963.22;5067497;28;20971;-57
2021/04/24 05:21:35;;;;;;;7.83;5.90;;;;;;;8.50;55.72;96967.28;5063128;28;20429;-58
2021/04/24 05:24:02;;;;;;;11.47;5.80;;;;;;;8.53;55.60;96959.03;5056764;28;20171;-58
2021/04/24 05:26:27;;;;;;;9.13;5.30;;;;;;;8.64;56.07;96967.09;5056758;28;20182;-58
2021/04/24 05:28:52;;;;;;;9.07;5.70;;;;;;;8.69;55.54;96961.28;5056210;28;20438;-59
2021/04/24 05:31:18;;;;;;;7.33;5.37;;;;;;;8.80;56.19;96961.50;5059500;28;20667;-60
2021/04/24 05:33:43;;;;;;;9.33;5.43;;;;;;;8.88;56.89;96960.47;5076502;28;20176;-57
2021/04/24 05:36:12;;;;;;;9.53;6.50;;;;;;;8.99;56.88;96962.50;5064589;28;20686;-60
2021/04/24 05:38:38;;;;;;;8.10;5.30;;;;;;;9.08;57.00;96972.59;5056221;28;20654;-58
2021/04/24 05:41:05;;;;;;;10.80;6.40;;;;;;;9.15;57.45;96968.16;5056821;28;20405;-60
2021/04/24 05:43:30;;;;;;;10.33;6.00;;;;;;;9.25;57.33;96965.97;5056453;28;20164;-57
2021/04/24 05:45:56;;;;;;;8.40;5.60;;;;;;;9.31;57.30;96966.97;5056493;28;20408;-60
2021/04/24 05:48:21;;;;;;;10.20;6.83;;;;;;;9.36;57.54;96972.41;5055965;28;20568;-58
2021/04/24 05:50:46;;;;;;;8.50;6.30;;;;;;;9.46;57.93;96972.78;5059654;28;20197;-58
2021/04/24 05:53:12;;;;;;;8.50;6.70;;;;;;;9.58;57.79;96976.44;5074762;28;20173;-58
2021/04/24 05:55:37;;;;;;;10.40;6.87;;;;;;;9.65;57.75;96974.59;5076253;28;20197;-58
2021/04/24 05:58:03;;;;;;;11.80;6.70;;;;;;;9.70;56.80;96976.59;5075300;28;20640;-59
2021/04/24 06:00:29;;;;;;;10.00;6.70;;;;;;;9.79;56.83;96970.13;5075142;28;20759;-57
2021/04/24 06:02:54;;;;;;;10.80;6.70;;;;;;;9.92;56.89;96970.09;5076187;28;20414;-58
2021/04/24 06:05:20;;;;;;;13.47;7.03;;;;;;;10.09;56.40;96969.47;5066501;28;20232;-59
2021/04/24 06:07:46;;;;;;;10.40;7.67;;;;;;;10.17;56.27;96966.63;5055748;28;20181;-59
2021/04/24 06:10:14;;;;;;;8.27;6.63;;;;;;;10.24;54.16;96966.56;5054526;28;20203;-58
2021/04/24 06:12:40;;;;;;;11.03;7.17;;;;;;;10.23;52.99;96971.03;5057627;28;20428;-58
2021/04/24 06:15:09;;;;;;;10.43;7.27;;;;;;;10.36;52.12;96967.56;5075892;28;20459;-58
2021/04/24 06:17:35;;;;;;;8.37;6.93;;;;;;;10.55;53.42;96968.47;5075328;28;20198;-58
2021/04/24 06:20:00;;;;;;;11.33;7.50;;;;;;;10.67;54.08;96970.19;5066192;28;20492;-60
2021/04/24 06:22:26;;;;;;;10.23;7.07;;;;;;;10.84;53.80;96965.25;5055701;28;20171;-58
2021/04/24 06:24:51;;;;;;;9.67;6.87;;;;;;;10.84;53.43;96970.50;5055583;28;20628;-59
2021/04/24 06:27:17;;;;;;;8.20;5.97;;;;;;;10.83;50.73;96967.09;5057728;28;20170;-60
2021/04/24 06:29:42;;;;;;;10.80;6.87;;;;;;;11.02;51.31;96967.97;5055551;28;20577;-59
2021/04/24 06:32:08;;;;;;;7.27;5.87;;;;;;;11.13;51.69;96967.28;5055643;28;20224;-60
2021/04/24 06:34:34;;;;;;;10.93;7.40;;;;;;;11.26;51.86;96970.63;5062559;28;20580;-59
2021/04/24 06:36:59;;;;;;;16.33;8.10;;;;;;;11.37;52.16;96966.50;5055420;28;20422;-61
2021/04/24 06:39:24;;;;;;;8.57;6.50;;;;;;;11.43;52.38;96963.00;5055124;28;20685;-59
2021/04/24 06:41:50;;;;;;;14.83;7.10;;;;;;;11.53;52.53;96965.94;5065731;28;20645;-58
2021/04/24 06:44:16;;;;;;;10.70;6.77;;;;;;;11.59;51.36;96967.72;5065693;28;20168;-58
2021/04/24 06:46:42;;;;;;;8.90;6.30;;;;;;;11.66;51.32;96972.94;5054155;28;20553;-57
2021/04/24 06:49:08;;;;;;;7.87;6.40;;;;;;;11.77;51.42;96977.50;5054705;28;20425;-61
2021/04/24 06:51:33;;;;;;;9.50;7.10;;;;;;;11.85;51.44;96978.00;5053832;28;20422;-60
2021/04/24 06:53:58;;;;;;;9.00;7.77;;;;;;;11.89;49.63;96975.75;5055005;28;20602;-60
2021/04/24 06:56:24;;;;;;;8.20;6.60;;;;;;;11.88;49.66;96974.97;5055134;28;20175;-59
2021/04/24 06:58:49;;;;;;;9.80;7.20;;;;;;;11.98;49.70;96977.88;5061795;28;20613;-58
2021/04/24 07:01:14;;;;;;;12.47;6.27;;;;;;;11.99;48.13;96971.56;5069334;28;20183;-57
2021/04/24 07:03:40;;;;;;;8.67;6.40;;;;;;;12.11;48.77;96979.56;5070935;28;20257;-60
2021/04/24 07:06:06;;;;;;;9.77;7.57;;;;;;;12.24;48.75;96974.97;5075079;28;20167;-60
2021/04/24 07:08:31;;;;;;;10.10;7.60;;;;;;;12.34;48.97;96972.59;5056241;28;20223;-58
2021/04/24 07:10:57;;;;;;;13.93;7.10;;;;;;;12.46;48.40;96979.75;5054934;28;20179;-60
2021/04/24 07:13:22;;;;;;;11.73;7.30;;;;;;;12.09;45.39;96978.97;5054976;28;20172;-58
2021/04/24 07:15:48;;;;;;;14.53;7.00;;;;;;;12.21;46.43;96975.38;5055615;28;20226;-60
2021/04/24 07:18:13;;;;;;;11.60;6.40;;;;;;;12.25;45.15;96978.38;5054235;28;20224;-59
2021/04/24 07:20:38;;;;;;;8.50;6.63;;;;;;;12.39;46.45;96978.00;5054763;28;20168;-58
2021/04/24 07:23:04;;;;;;;11.30;8.80;;;;;;;12.61;46.90;96964.38;5062383;28;20224;-58
2021/04/24 07:25:29;;;;;;;10.37;8.17;;;;;;;12.59;45.51;96969.84;5054514;28;20172;-58
2021/04/24 07:27:55;;;;;;;11.30;7.40;;;;;;;12.68;46.73;96963.22;5054066;28;20172;-58
2021/04/24 07:30:21;;;;;;;9.87;6.40;;;;;;;12.65;45.04;96965.50;5054537;28;20215;-59
2021/04/24 07:32:47;;;;;;;8.97;7.00;;;;;;;12.90;43.92;96966.97;5054430;28;20232;-59
2021/04/24 07:35:12;;;;;;;11.90;7.60;;;;;;;12.99;44.45;96968.28;5058326;28;20449;-60
2021/04/24 07:37:38;;;;;;;14.97;7.83;;;;;;;13.14;46.33;96966.06;5065870;28;20194;-60
2021/04/24 07:40:05;;;;;;;9.80;6.87;;;;;;;13.25;45.23;96965.28;5057105;28;20194;-59
2021/04/24 07:42:31;;;;;;;10.83;7.33;;;;;;;13.36;45.00;96963.69;5073127;28;20308;-61
2021/04/24 07:44:56;;;;;;;13.17;6.87;;;;;;;13.22;43.91;96955.19;5070414;28;20815;-59
2021/04/24 07:47:21;;;;;;;10.63;6.63;;;;;;;13.47;44.41;96965.53;5062375;28;20175;-58
2021/04/24 07:49:47;;;;;;;9.73;6.90;;;;;;;13.65;45.04;96961.97;5063198;28;20681;-58
2021/04/24 07:52:14;;;;;;;11.13;7.47;;;;;;;13.62;42.29;96960.59;5063674;28;20178;-60
2021/04/24 07:54:43;;;;;;;10.10;7.67;;;;;;;13.70;43.05;96959.44;5064167;28;20531;-58
2021/04/24 07:57:14;;;;;;;14.23;7.57;;;;;;;13.80;42.84;96952.56;5061141;28;20440;-59
2021/04/24 07:59:40;;;;;;;12.90;7.83;;;;;;;13.89;42.83;96951.19;5061176;28;20492;-59
2021/04/24 08:02:06;;;;;;;10.30;7.00;;;;;;;13.96;40.38;96946.56;5063144;28;20420;-59
2021/04/24 08:04:31;;;;;;;11.07;6.77;;;;;;;14.06;41.81;96949.41;5062874;28;20511;-60
2021/04/24 08:06:57;;;;;;;8.73;7.37;;;;;;;14.17;41.45;96948.59;5061728;28;20501;-59
2021/04/24 08:09:23;;;;;;;15.90;8.63;;;;;;;14.15;40.62;96955.94;5062345;28;20203;-59
2021/04/24 08:11:49;;;;;;;13.10;7.30;;;;;;;14.01;40.78;96951.97;5063443;28;20175;-59
2021/04/24 08:14:14;;;;;;;9.80;7.03;;;;;;;14.31;39.74;96952.59;5063426;28;20940;-60
2021/04/24 08:16:39;;;;;;;11.60;6.97;;;;;;;14.50;37.79;96963.00;5061199;28;20175;-59
2021/04/24 08:19:05;;;;;;;10.37;7.20;;;;;;;14.36;37.54;96957.19;5060442;28;20297;-59
2021/04/24 08:21:31;;;;;;;9.47;6.47;;;;;;;14.74;37.75;96956.59;5061820;28;20176;-60
2021/04/24 08:24:01;;;;;;;13.20;7.10;;;;;;;14.94;38.57;96951.69;5059009;28;20175;-63
2021/04/24 08:26:28;;;;;;;12.40;7.40;;;;;;;14.92;38.65;96953.75;5058627;28;20179;-60
2021/04/24 08:28:53;;;;;;;13.40;8.20;;;;;;;15.05;39.21;96956.91;5063679;28;20451;-60
2021/04/24 08:31:19;;;;;;;8.90;6.90;;;;;;;15.16;40.32;96961.31;5073002;28;20795;-59
2021/04/24 08:33:44;;;;;;;11.70;7.80;;;;;;;15.05;39.32;96948.97;5061320;28;20175;-59
2021/04/24 08:36:10;;;;;;;11.30;7.40;;;;;;;15.18;38.21;96951.28;5052563;28;20202;-60
2021/04/24 08:38:35;;;;;;;14.43;9.17;;;;;;;15.36;37.03;96948.41;5051589;28;20293;-60
2021/04/24 08:41:05;;;;;;;9.73;7.10;;;;;;;15.43;36.47;96945.66;5052390;28;20218;-60
2021/04/24 08:43:32;;;;;;;10.60;7.43;;;;;;;15.64;37.76;96942.25;5055432;28;20179;-60
2021/04/24 08:46:01;;;;;;;13.63;7.83;;;;;;;15.75;37.39;96945.84;5068380;28;20445;-60
2021/04/24 08:48:27;;;;;;;10.47;6.90;;;;;;;15.85;37.62;96938.84;5063087;28;20787;-61
2021/04/24 08:50:54;;;;;;;11.17;7.37;;;;;;;16.14;36.73;96942.94;5060068;28;20843;-60
2021/04/24 08:53:20;;;;;;;10.50;7.70;;;;;;;16.20;36.74;96941.16;5071642;28;20511;-60
2021/04/24 08:55:45;;;;;;;10.13;7.77;;;;;;;16.17;35.73;96939.81;5072184;28;20548;-60
2021/04/24 08:58:11;;;;;;;8.23;7.00;;;;;;;16.29;37.07;96937.84;5071753;28;20614;-60
2021/04/24 09:00:39;;;;;;;9.20;7.73;;;;;;;16.38;37.27;96936.34;5056855;28;20171;-61
2021/04/24 09:03:09;;;;;;;9.50;7.50;;;;;;;16.48;35.26;96935.72;5060652;28;20178;-60
2021/04/24 09:05:35;;;;;;;8.13;7.27;;;;;;;16.58;32.63;96932.38;5062437;28;20817;-60
2021/04/24 09:08:02;;;;;;;10.07;7.90;;;;;;;16.80;32.71;96927.81;5060095;28;20507;-60
2021/04/24 09:10:33;;;;;;;9.30;7.10;;;;;;;16.89;32.99;96928.94;5060689;28;20437;-60
2021/04/24 09:12:58;;;;;;;9.80;7.47;;;;;;;16.92;32.55;96923.94;5064288;28;20421;-60
2021/04/24 09:15:26;;;;;;;12.57;7.50;;;;;;;16.92;33.87;96928.47;5062369;28;20463;-62
2021/04/24 09:17:53;;;;;;;11.77;7.70;;;;;;;16.77;32.70;96917.69;5069526;28;20534;-62
2021/04/24 09:20:20;;;;;;;11.23;7.70;;;;;;;17.10;33.21;96923.56;5064375;28;20449;-62
2021/04/24 09:22:56;;;;;;;11.63;8.87;;;;;;;17.39;32.03;96908.16;5059891;28;20410;-61
2021/04/24 09:25:49;;;;;;;9.77;7.90;;;;;;;17.63;32.97;96908.63;5060216;28;20415;-60
2021/04/24 09:28:33;;;;;;;8.10;7.30;;;;;;;17.57;34.50;96906.97;5059867;28;20912;-61
2021/04/24 09:31:00;;;;;;;10.97;8.50;;;;;;;17.39;30.82;96900.97;5052674;28;20512;-59
2021/04/24 09:33:33;;;;;;;8.33;6.70;;;;;;;17.29;30.88;96898.25;5072889;28;20417;-62
2021/04/24 09:36:00;;;;;;;11.60;7.20;;;;;;;17.57;30.94;96905.13;5064145;28;20453;-62
2021/04/24 09:38:34;;;;;;;8.23;6.40;;;;;;;17.84;32.68;96902.34;5062952;28;20425;-62
2021/04/24 09:41:07;;;;;;;10.50;7.60;;;;;;;18.03;34.08;96901.66;5058865;28;20428;-63
2021/04/24 09:43:53;;;;;;;7.83;6.40;;;;;;;18.33;30.79;96896.44;5064889;28;20428;-62
2021/04/24 09:46:18;;;;;;;9.93;7.00;;;;;;;18.39;30.44;96898.06;5066749;28;20409;-62
2021/04/24 09:48:43;;;;;;;9.00;6.87;;;;;;;18.67;30.38;96891.53;5064229;28;20440;-61
2021/04/24 09:51:17;;;;;;;7.57;6.30;;;;;;;18.53;30.98;96887.78;5065493;28;20179;-60
2021/04/24 09:53:54;;;;;;;7.87;6.73;;;;;;;18.83;30.30;96884.34;5066276;28;20175;-60
2021/04/24 09:56:19;;;;;;;8.80;7.90;;;;;;;18.63;27.95;96886.97;5066552;28;20461;-62
2021/04/24 09:58:44;;;;;;;10.10;7.50;;;;;;;18.54;32.51;96883.22;5068718;28;20515;-60
2021/04/24 10:01:31;;;;;;;8.70;7.53;;;;;;;18.78;31.21;96874.50;5076167;28;20220;-59
2021/04/24 10:03:57;;;;;;;11.20;8.00;;;;;;;18.95;29.07;96876.94;5075965;28;20178;-62
2021/04/24 10:06:30;;;;;;;9.40;6.80;;;;;;;19.04;29.65;96873.44;5075907;28;20420;-59
2021/04/24 10:09:16;;;;;;;11.20;7.80;;;;;;;19.26;29.34;96867.84;5075260;28;20498;-59
2021/04/24 10:12:05;;;;;;;8.10;7.30;;;;;;;19.33;28.22;96861.22;5074931;28;20760;-63
2021/04/24 10:14:38;;;;;;;8.83;6.70;;;;;;;19.59;29.23;96863.84;5073451;28;20461;-60
2021/04/24 10:17:06;;;;;;;10.30;7.77;;;;;;;19.83;29.21;96864.84;5075495;28;20409;-60
2021/04/24 10:19:34;;;;;;;8.53;7.63;;;;;;;19.11;27.85;96852.66;5074275;28;20502;-62
2021/04/24 10:22:00;;;;;;;10.23;7.27;;;;;;;19.05;26.86;96856.41;5075639;28;20603;-59
2021/04/24 10:24:27;;;;;;;12.10;8.20;;;;;;;18.92;26.60;96854.28;5075670;28;20401;-60
2021/04/24 10:26:54;;;;;;;11.30;8.03;;;;;;;19.43;28.97;96849.75;5075449;28;20482;-63
2021/04/24 10:29:20;;;;;;;7.93;7.10;;;;;;;19.72;28.69;96845.41;5070737;28;20449;-60
2021/04/24 10:31:46;;;;;;;10.13;7.30;;;;;;;19.97;28.11;96852.53;5055489;28;20409;-62
2021/04/24 10:34:13;;;;;;;10.00;7.57;;;;;;;19.95;26.32;96852.00;5055077;28;20405;-62
2021/04/24 10:36:38;;;;;;;9.57;7.60;;;;;;;19.94;28.37;96845.88;5055080;28;20421;-62
2021/04/24 10:39:08;;;;;;;9.77;7.90;;;;;;;19.36;28.05;96842.03;5054761;28;20904;-59
2021/04/24 10:41:43;;;;;;;10.77;8.07;;;;;;;19.50;27.60;96844.94;5055395;28;20167;-59
2021/04/24 10:44:14;;;;;;;10.67;7.30;;;;;;;19.75;26.30;96846.75;5058639;28;20439;-60
2021/04/24 10:46:50;;;;;;;9.40;8.20;;;;;;;20.15;26.66;96841.25;5075621;28;20409;-63
2021/04/24 10:49:20;;;;;;;8.63;7.70;;;;;;;20.11;25.98;96830.31;5073658;28;20440;-63
2021/04/24 10:52:03;;;;;;;9.33;7.80;;;;;;;20.33;29.46;96832.66;5075273;28;20397;-59
2021/04/24 10:54:30;;;;;;;9.77;8.77;;;;;;;20.36;28.37;96830.22;5054963;28;20449;-60
2021/04/24 10:56:56;;;;;;;14.70;8.90;;;;;;;20.43;29.12;96828.06;5054767;28;20434;-60
2021/04/24 10:59:24;;;;;;;9.40;7.93;;;;;;;20.67;26.95;96828.19;5054577;28;20806;-60
2021/04/24 11:02:03;;;;;;;10.93;8.60;;;;;;;20.76;26.28;96826.50;5061767;28;20772;-63
2021/04/24 11:04:48;;;;;;;11.13;7.93;;;;;;;20.99;26.62;96822.31;5067083;28;20423;-60
2021/04/24 11:07:19;;;;;;;12.43;8.10;;;;;;;20.99;25.80;96819.66;5074477;28;20953;-60
2021/04/24 11:10:04;;;;;;;10.73;8.60;;;;;;;21.29;26.34;96816.72;5074496;28;20428;-60
2021/04/24 11:12:31;;;;;;;9.20;7.77;;;;;;;21.50;28.12;96810.88;5074542;28;20478;-60
2021/04/24 11:15:01;;;;;;;9.30;8.07;;;;;;;21.49;26.49;96808.50;5074614;28;20445;-60
2021/04/24 11:17:29;;;;;;;10.60;8.40;;;;;;;21.87;25.74;96802.22;5074293;28;20829;-63
2021/04/24 11:19:55;;;;;;;11.20;8.53;;;;;;;22.09;27.55;96807.84;5057124;28;20798;-60
2021/04/24 11:22:37;;;;;;;13.93;8.57;;;;;;;22.17;26.78;96809.06;5074729;28;20408;-63
2021/04/24 11:25:17;;;;;;;12.37;9.57;;;;;;;22.20;26.58;96803.94;5074457;28;20167;-63
2021/04/24 11:28:01;;;;;;;12.90;9.60;;;;;;;22.24;26.25;96799.63;5074157;28;20887;-60
2021/04/24 11:30:50;;;;;;;10.83;9.13;;;;;;;22.31;25.88;96796.56;5074218;28;20950;-63
2021/04/24 11:33:38;;;;;;;11.67;9.30;;;;;;;22.19;26.30;96794.31;5071907;28;20401;-60